createdAt,value
2022-11-20T00:01:06.693Z,12.48
2022-11-20T00:03:34.562Z,12.55
2022-11-20T00:06:03.141Z,12.57
2022-11-20T00:08:32.244Z,14.20
2022-11-20T00:11:03.942Z,13.88
2022-11-20T00:13:31.865Z,12.30
2022-11-20T00:16:00.515Z,12.73
2022-11-20T00:18:28.381Z,12.65
2022-11-20T00:21:02.016Z,12.63
2022-11-20T00:23:29.856Z,13.10
2022-11-20T00:25:59.009Z,14.38
2022-11-20T00:28:26.754Z,12.85
2022-11-20T00:30:54.487Z,12.93
2022-11-20T00:33:22.216Z,12.32
2022-11-20T00:35:49.999Z,12.95
2022-11-20T00:38:17.718Z,12.23
2022-11-20T00:40:45.465Z,12.57
2022-11-20T00:43:14.585Z,13.00
2022-11-20T00:45:42.325Z,12.68
2022-11-20T00:48:10.056Z,11.98
2022-11-20T00:50:37.805Z,12.90
2022-11-20T00:53:05.517Z,13.38
2022-11-20T00:55:33.287Z,12.48
2022-11-20T00:58:04.361Z,12.13
2022-11-20T01:00:33.797Z,14.40
2022-11-20T01:03:01.528Z,12.23
2022-11-20T01:05:29.254Z,13.05
2022-11-20T01:07:56.992Z,12.90
2022-11-20T01:10:24.759Z,11.70
2022-11-20T01:13:12.475Z,12.20
2022-11-20T01:15:41.583Z,12.88
2022-11-20T01:18:09.292Z,12.55
2022-11-20T01:20:37.697Z,12.18
2022-11-20T01:23:05.485Z,13.23
2022-11-20T01:25:33.240Z,12.77
2022-11-20T01:28:00.948Z,12.68
2022-11-20T01:30:28.723Z,12.90
2022-11-20T01:32:58.500Z,12.80
2022-11-20T01:35:26.303Z,13.00
2022-11-20T01:37:54.060Z,12.60
2022-11-20T01:40:21.804Z,12.60
2022-11-20T01:43:18.608Z,12.38
2022-11-20T01:45:59.976Z,12.63
2022-11-20T01:48:35.335Z,12.52
2022-11-20T01:51:05.900Z,11.82
2022-11-20T01:53:38.196Z,11.85
2022-11-20T01:56:10.286Z,12.32
2022-11-20T01:58:43.291Z,12.43
2022-11-20T02:01:11.350Z,12.25
2022-11-20T02:03:40.735Z,11.85
2022-11-20T02:06:14.663Z,12.00
2022-11-20T02:08:42.502Z,11.05
2022-11-20T02:11:10.384Z,11.95
2022-11-20T02:13:46.263Z,11.70
2022-11-20T02:16:17.972Z,11.15
2022-11-20T02:18:48.340Z,10.63
2022-11-20T02:21:32.211Z,11.68
2022-11-20T02:24:11.277Z,10.95
2022-11-20T02:26:48.345Z,11.30
2022-11-20T02:29:20.097Z,11.85
2022-11-20T02:31:48.862Z,10.50
2022-11-20T02:34:16.607Z,11.20
2022-11-20T02:36:44.848Z,11.38
2022-11-20T02:39:17.888Z,10.80
2022-11-20T02:41:45.795Z,10.98
2022-11-20T02:44:13.736Z,10.25
2022-11-20T02:46:41.792Z,10.70
2022-11-20T02:49:09.611Z,11.10
2022-11-20T02:51:37.363Z,11.63
2022-11-20T02:54:05.399Z,11.25
2022-11-20T02:56:34.635Z,11.85
2022-11-20T02:59:02.316Z,11.05
2022-11-20T03:01:30.130Z,10.88
2022-11-20T03:03:57.891Z,11.30
2022-11-20T03:06:25.673Z,11.00
2022-11-20T03:08:53.403Z,11.10
2022-11-20T03:11:21.197Z,10.75
2022-11-20T03:13:50.301Z,10.85
2022-11-20T03:16:20.684Z,10.63
2022-11-20T03:18:48.989Z,10.43
2022-11-20T03:21:17.407Z,10.50
2022-11-20T03:23:45.198Z,9.48
2022-11-20T03:26:15.853Z,10.48
2022-11-20T03:28:47.847Z,10.77
2022-11-20T03:31:18.450Z,10.32
2022-11-20T03:33:46.227Z,10.80
2022-11-20T03:36:16.064Z,10.52
2022-11-20T03:38:44.270Z,10.43
2022-11-20T03:41:13.618Z,10.27
2022-11-20T03:43:42.127Z,10.50
2022-11-20T03:46:10.273Z,10.27
2022-11-20T03:48:39.335Z,10.88
2022-11-20T03:51:12.072Z,10.13
2022-11-20T03:53:40.222Z,9.57
2022-11-20T03:56:09.160Z,10.38
2022-11-20T03:58:37.943Z,9.85
2022-11-20T04:01:10.017Z,10.18
2022-11-20T04:03:40.539Z,9.77
2022-11-20T04:06:11.245Z,10.85
2022-11-20T04:08:39.715Z,10.02
2022-11-20T04:11:11.937Z,10.65
2022-11-20T04:13:40.221Z,10.40
2022-11-20T04:16:09.225Z,10.20
2022-11-20T04:18:38.997Z,11.15
2022-11-20T04:21:07.831Z,10.70
2022-11-20T04:23:35.656Z,9.27
2022-11-20T04:26:05.040Z,10.10
2022-11-20T04:28:32.896Z,9.88
2022-11-20T04:31:04.908Z,10.30
2022-11-20T04:33:34.200Z,9.88
2022-11-20T04:36:05.158Z,10.00
2022-11-20T04:38:32.928Z,9.18
2022-11-20T04:41:01.225Z,10.45
2022-11-20T04:43:29.304Z,10.20
2022-11-20T04:45:58.206Z,10.27
2022-11-20T04:48:26.875Z,10.20
2022-11-20T04:50:54.987Z,10.32
2022-11-20T04:53:24.847Z,10.25
2022-11-20T04:55:52.587Z,10.00
2022-11-20T04:58:20.544Z,10.23
2022-11-20T05:00:48.312Z,10.45
2022-11-20T05:03:16.078Z,9.85
2022-11-20T05:05:43.780Z,9.77
2022-11-20T05:08:11.540Z,10.35
2022-11-20T05:10:40.631Z,9.25
2022-11-20T05:13:08.411Z,9.57
2022-11-20T05:15:36.141Z,10.30
2022-11-20T05:18:03.934Z,9.15
2022-11-20T05:20:31.703Z,10.00
2022-11-20T05:22:59.489Z,9.43
2022-11-20T05:25:27.357Z,10.00
2022-11-20T05:27:56.512Z,10.02
2022-11-20T05:30:24.263Z,10.40
2022-11-20T05:32:51.979Z,9.15
2022-11-20T05:35:19.804Z,9.93
2022-11-20T05:37:47.593Z,9.73
2022-11-20T05:40:15.589Z,10.27
2022-11-20T05:42:44.639Z,10.73
2022-11-20T05:45:13.744Z,10.02
2022-11-20T05:47:41.467Z,9.52
2022-11-20T05:50:09.913Z,10.10
2022-11-20T05:52:37.641Z,9.98
2022-11-20T05:55:05.950Z,9.60
2022-11-20T05:57:34.033Z,9.27
2022-11-20T06:00:01.763Z,9.57
2022-11-20T06:02:36.564Z,10.07
2022-11-20T06:05:04.591Z,10.10
2022-11-20T06:07:32.423Z,9.02
2022-11-20T06:10:00.283Z,9.18
2022-11-20T06:12:28.040Z,9.25
2022-11-20T06:14:55.807Z,10.10
2022-11-20T06:17:23.512Z,9.65
2022-11-20T06:19:52.628Z,10.80
2022-11-20T06:22:20.399Z,8.75
2022-11-20T06:24:48.250Z,9.63
2022-11-20T06:27:16.073Z,10.32
2022-11-20T06:29:43.836Z,10.07
2022-11-20T06:32:11.628Z,9.23
2022-11-20T06:34:39.423Z,9.55
2022-11-20T06:37:08.509Z,9.52
2022-11-20T06:39:36.246Z,9.35
2022-11-20T06:42:04.027Z,9.18
2022-11-20T06:44:31.808Z,8.98
2022-11-20T06:46:59.556Z,9.23
2022-11-20T06:49:27.960Z,9.38
2022-11-20T06:51:55.692Z,9.13
2022-11-20T06:54:24.747Z,8.98
2022-11-20T06:56:52.506Z,9.15
2022-11-20T06:59:20.659Z,8.82
2022-11-20T07:01:49.119Z,9.35
2022-11-20T07:04:17.189Z,9.52
2022-11-20T07:06:44.948Z,9.57
2022-11-20T07:09:13.038Z,9.02
2022-11-20T07:11:42.216Z,9.68
2022-11-20T07:14:10.010Z,10.00
2022-11-20T07:16:37.801Z,10.90
2022-11-20T07:19:05.552Z,14.45
2022-11-20T07:21:33.263Z,11.35
2022-11-20T07:24:00.967Z,10.80
2022-11-20T07:26:28.770Z,10.50
2022-11-20T07:28:57.850Z,8.70
2022-11-20T07:31:25.582Z,10.20
2022-11-20T07:33:53.630Z,9.57
2022-11-20T07:36:21.499Z,9.52
2022-11-20T07:38:49.260Z,9.48
2022-11-20T07:41:17.159Z,9.82
2022-11-20T07:43:44.929Z,8.98
2022-11-20T07:46:13.991Z,9.05
2022-11-20T07:48:41.849Z,10.32
2022-11-20T07:51:09.940Z,9.65
2022-11-20T07:53:37.683Z,10.60
2022-11-20T07:56:06.130Z,9.50
2022-11-20T07:58:35.424Z,10.15
2022-11-20T08:01:06.502Z,10.57
2022-11-20T08:03:38.512Z,10.32
2022-11-20T08:06:06.726Z,11.13
2022-11-20T08:08:36.898Z,10.70
2022-11-20T08:11:24.848Z,11.55
2022-11-20T08:14:10.144Z,11.32
2022-11-20T08:16:37.926Z,9.82
2022-11-20T08:19:07.345Z,11.60
2022-11-20T08:21:38.197Z,11.23
2022-11-20T08:24:07.479Z,11.43
2022-11-20T08:26:37.795Z,11.13
2022-11-20T08:29:06.550Z,10.38
2022-11-20T08:31:34.343Z,11.80
2022-11-20T08:34:06.291Z,11.93
2022-11-20T08:36:38.831Z,12.30
2022-11-20T08:39:06.661Z,11.55
2022-11-20T08:41:34.457Z,12.57
2022-11-20T08:44:03.654Z,11.65
2022-11-20T08:46:35.463Z,11.85
2022-11-20T08:49:03.264Z,11.70
2022-11-20T08:51:31.106Z,12.55
2022-11-20T08:54:00.264Z,12.55
2022-11-20T08:56:28.288Z,13.02
2022-11-20T08:59:20.233Z,12.18
2022-11-20T09:01:43.794Z,13.75
2022-11-20T09:04:12.729Z,12.98
2022-11-20T09:06:40.471Z,14.13
2022-11-20T09:09:09.682Z,13.80
2022-11-20T09:11:37.637Z,12.82
2022-11-20T09:14:05.614Z,12.30
2022-11-20T09:16:33.398Z,12.40
2022-11-20T09:19:34.141Z,12.23
2022-11-20T09:21:48.854Z,13.15
2022-11-20T09:24:18.058Z,12.23
2022-11-20T09:26:45.999Z,12.68
2022-11-20T09:29:13.820Z,12.85
2022-11-20T09:31:41.648Z,12.05
2022-11-20T09:34:09.415Z,13.18
2022-11-20T09:36:37.694Z,14.43
2022-11-20T09:39:05.598Z,13.90
2022-11-20T09:41:56.815Z,13.05
2022-11-20T09:44:38.869Z,12.00
2022-11-20T09:47:11.027Z,11.98
2022-11-20T09:49:53.720Z,15.32
2022-11-20T09:52:28.882Z,13.00
2022-11-20T09:54:57.187Z,13.73
2022-11-20T09:57:36.353Z,14.15
2022-11-20T10:00:06.966Z,15.20
2022-11-20T10:02:46.859Z,13.48
2022-11-20T10:05:20.339Z,13.85
2022-11-20T10:07:56.182Z,15.18
2022-11-20T10:10:33.101Z,13.85
2022-11-20T10:13:18.388Z,12.63
2022-11-20T10:15:58.113Z,13.77
2022-11-20T10:18:41.478Z,12.95
2022-11-20T10:23:59.275Z,11.50
2022-11-20T10:26:37.415Z,12.73
2022-11-20T10:29:14.163Z,14.23
2022-11-20T10:31:44.349Z,12.85
2022-11-20T10:34:23.516Z,13.25
2022-11-20T10:36:57.096Z,14.50
2022-11-20T10:39:34.367Z,14.75
2022-11-20T10:42:03.056Z,14.50
2022-11-20T10:44:53.712Z,13.10
2022-11-20T10:47:24.152Z,13.98
2022-11-20T10:49:55.048Z,15.07
2022-11-20T10:52:30.706Z,13.40
2022-11-20T10:55:07.130Z,14.43
2022-11-20T10:57:49.057Z,13.73
2022-11-20T11:00:18.962Z,14.60
2022-11-20T11:02:50.308Z,14.75
2022-11-20T11:08:01.721Z,15.25
2022-11-20T11:10:38.515Z,14.25
2022-11-20T11:13:06.348Z,14.98
2022-11-20T11:15:41.972Z,14.18
2022-11-20T11:18:11.774Z,15.18
2022-11-20T11:20:40.360Z,15.73
2022-11-20T11:23:30.567Z,15.52
2022-11-20T11:26:00.311Z,15.70
2022-11-20T11:28:29.337Z,16.63
2022-11-20T11:30:58.625Z,17.23
2022-11-20T11:33:28.191Z,16.60
2022-11-20T11:35:59.061Z,17.40
2022-11-20T11:38:32.827Z,17.65
2022-11-20T11:41:00.948Z,17.23
2022-11-20T11:43:50.496Z,16.80
2022-11-20T11:46:32.625Z,17.25
2022-11-20T11:49:02.223Z,17.33
2022-11-20T11:51:38.747Z,18.38
2022-11-20T11:54:17.273Z,17.33
2022-11-20T11:56:45.725Z,17.98
2022-11-20T11:59:24.963Z,17.40
2022-11-20T12:01:59.327Z,17.13
2022-11-20T12:04:42.512Z,18.17
2022-11-20T12:07:44.187Z,18.92
2022-11-20T12:10:04.779Z,16.75
2022-11-20T12:12:38.099Z,18.00
2022-11-20T12:15:09.864Z,19.27
2022-11-20T12:17:39.034Z,18.27
2022-11-20T12:20:13.423Z,20.00
2022-11-20T12:22:51.441Z,18.25
2022-11-20T12:25:24.402Z,16.50
2022-11-20T12:28:21.609Z,17.90
2022-11-20T12:31:04.189Z,14.93
2022-11-20T12:34:11.526Z,19.15
2022-11-20T12:36:47.268Z,17.52
2022-11-20T12:39:37.467Z,17.35
2022-11-20T12:42:51.367Z,16.02
2022-11-20T12:46:08.704Z,16.38
2022-11-20T12:48:49.566Z,16.33
2022-11-20T12:51:34.707Z,17.83
2022-11-20T12:54:34.469Z,18.42
2022-11-20T12:57:10.100Z,17.55
2022-11-20T12:59:59.451Z,18.00
2022-11-20T13:05:18.339Z,15.85
2022-11-20T13:07:49.291Z,15.55
2022-11-20T13:10:23.610Z,18.73
2022-11-20T13:12:58.298Z,18.98
2022-11-20T13:15:40.800Z,16.85
2022-11-20T13:18:12.515Z,17.33
2022-11-20T13:20:45.052Z,18.40
2022-11-20T13:23:26.075Z,17.33
2022-11-20T13:26:05.612Z,17.75
2022-11-20T13:28:33.956Z,16.73
2022-11-20T13:31:01.769Z,16.17
2022-11-20T13:33:32.871Z,17.63
2022-11-20T13:36:02.835Z,18.13
2022-11-20T13:38:44.789Z,17.23
2022-11-20T13:41:32.166Z,16.75
2022-11-20T13:44:09.134Z,17.80
2022-11-20T13:46:39.886Z,16.10
2022-11-20T13:49:18.472Z,16.17
2022-11-20T13:51:49.176Z,16.98
2022-11-20T13:54:41.576Z,17.27
2022-11-20T13:57:26.572Z,16.98
2022-11-20T14:00:00.006Z,16.95
2022-11-20T14:02:30.435Z,17.80
2022-11-20T14:05:01.079Z,16.80
2022-11-20T14:07:37.519Z,16.17
2022-11-20T14:10:07.769Z,16.75
2022-11-20T14:12:37.813Z,15.75
2022-11-20T14:15:06.283Z,16.25
2022-11-20T14:17:37.354Z,16.23
2022-11-20T14:20:08.143Z,17.35
2022-11-20T14:22:35.918Z,16.38
2022-11-20T14:25:20.051Z,17.50
2022-11-20T14:27:52.718Z,16.40
2022-11-20T14:30:22.522Z,17.80
2022-11-20T14:32:51.405Z,17.98
2022-11-20T14:35:23.511Z,18.83
2022-11-20T14:37:51.468Z,17.63
2022-11-20T14:40:30.380Z,17.45
2022-11-20T14:42:59.379Z,16.10
2022-11-20T14:45:28.081Z,16.67
2022-11-20T14:47:58.680Z,17.50
2022-11-20T14:50:28.909Z,17.35
2022-11-20T14:52:58.407Z,16.63
2022-11-20T14:55:33.431Z,17.63
2022-11-20T14:58:03.112Z,17.90
2022-11-20T15:00:32.311Z,17.17
2022-11-20T15:03:00.295Z,16.60
2022-11-20T15:05:46.956Z,18.17
2022-11-20T15:08:15.556Z,17.50
2022-11-20T15:10:50.171Z,16.92
2022-11-20T15:13:26.311Z,16.60
2022-11-20T15:15:56.910Z,18.63
2022-11-20T15:18:28.857Z,17.98
2022-11-20T15:20:57.677Z,19.02
2022-11-20T15:23:25.602Z,18.30
2022-11-20T15:25:54.765Z,17.88
2022-11-20T15:28:25.036Z,18.33
2022-11-20T15:30:52.810Z,18.60
2022-11-20T15:33:20.743Z,17.95
2022-11-20T15:35:48.478Z,17.92
2022-11-20T15:38:16.475Z,17.38
2022-11-20T15:40:44.216Z,17.55
2022-11-20T15:43:14.087Z,17.45
2022-11-20T15:45:44.890Z,19.10
2022-11-20T15:48:16.347Z,18.08
2022-11-20T15:50:52.840Z,18.30
2022-11-20T15:53:20.819Z,18.40
2022-11-20T15:55:48.669Z,17.80
2022-11-20T15:58:18.623Z,17.30
2022-11-20T16:00:46.687Z,16.88
2022-11-20T16:03:15.099Z,17.48
2022-11-20T16:05:43.040Z,18.73
2022-11-20T16:08:11.950Z,19.13
2022-11-20T16:10:40.870Z,18.13
2022-11-20T16:13:31.682Z,18.83
2022-11-20T16:16:05.820Z,18.83
2022-11-20T16:18:34.804Z,18.23
2022-11-20T16:21:02.926Z,17.60
2022-11-20T16:23:30.768Z,20.25
2022-11-20T16:25:58.547Z,20.23
2022-11-20T16:28:26.335Z,19.33
2022-11-20T16:30:54.059Z,18.83
2022-11-20T16:33:23.187Z,19.80
2022-11-20T16:35:50.886Z,18.80
2022-11-20T16:38:18.669Z,19.13
2022-11-20T16:40:46.395Z,18.80
2022-11-20T16:43:16.102Z,17.75
2022-11-20T16:45:44.962Z,18.33
2022-11-20T16:48:14.773Z,17.50
2022-11-20T16:50:51.887Z,18.50
2022-11-20T16:53:21.449Z,16.90
2022-11-20T16:55:49.401Z,16.58
2022-11-20T16:58:17.603Z,17.65
2022-11-20T17:00:51.397Z,16.85
2022-11-20T17:03:20.989Z,16.67
2022-11-20T17:05:50.479Z,16.63
2022-11-20T17:08:18.263Z,18.95
2022-11-20T17:10:45.999Z,17.98
2022-11-20T17:13:13.784Z,17.48
2022-11-20T17:15:41.496Z,18.63
2022-11-20T17:18:09.327Z,17.80
2022-11-20T17:20:37.075Z,18.83
2022-11-20T17:23:06.210Z,21.75
2022-11-20T17:25:34.936Z,18.33
2022-11-20T17:28:02.749Z,19.15
2022-11-20T17:30:30.609Z,19.52
2022-11-20T17:32:58.397Z,18.35
2022-11-20T17:35:26.176Z,18.48
2022-11-20T17:37:53.915Z,19.02
2022-11-20T17:40:27.116Z,18.73
2022-11-20T17:42:55.816Z,17.73
2022-11-20T17:45:23.593Z,18.63
2022-11-20T17:47:51.361Z,17.40
2022-11-20T17:50:19.158Z,17.42
2022-11-20T17:52:46.936Z,17.38
2022-11-20T17:55:14.828Z,17.92
2022-11-20T17:57:57.015Z,18.30
2022-11-20T18:00:25.240Z,18.20
2022-11-20T18:02:53.200Z,18.38
2022-11-20T18:05:20.981Z,17.42
2022-11-20T18:07:53.520Z,17.52
2022-11-20T18:10:21.578Z,18.45
2022-11-20T18:12:50.838Z,17.83
2022-11-20T18:15:18.758Z,17.08
2022-11-20T18:17:46.509Z,18.17
2022-11-20T18:20:28.709Z,18.00
2022-11-20T18:22:58.524Z,16.95
2022-11-20T18:25:26.436Z,16.75
2022-11-20T18:27:56.397Z,17.15
2022-11-20T18:30:24.326Z,17.08
2022-11-20T18:32:52.035Z,17.30
2022-11-20T18:35:19.798Z,16.25
2022-11-20T18:37:47.623Z,16.58
2022-11-20T18:40:15.514Z,16.40
2022-11-20T18:43:15.230Z,16.38
2022-11-20T18:45:44.440Z,17.00
2022-11-20T18:48:12.167Z,16.10
2022-11-20T18:50:39.979Z,16.77
2022-11-20T18:53:07.699Z,16.45
2022-11-20T18:55:36.947Z,16.85
2022-11-20T18:58:04.646Z,16.48
2022-11-20T19:00:32.396Z,16.17
2022-11-20T19:03:01.543Z,16.13
2022-11-20T19:05:29.310Z,16.48
2022-11-20T19:07:57.235Z,16.48
2022-11-20T19:10:26.871Z,16.85
2022-11-20T19:12:54.595Z,16.35
2022-11-20T19:15:24.180Z,16.98
2022-11-20T19:17:51.993Z,16.90
2022-11-20T19:20:21.126Z,17.42
2022-11-20T19:22:51.768Z,16.70
2022-11-20T19:25:19.570Z,16.15
2022-11-20T19:27:47.392Z,17.13
2022-11-20T19:30:15.906Z,16.38
2022-11-20T19:32:43.780Z,18.15
2022-11-20T19:35:11.534Z,17.20
2022-11-20T19:37:40.682Z,16.88
2022-11-20T19:40:09.293Z,17.40
2022-11-20T19:42:37.035Z,16.85
2022-11-20T19:45:05.115Z,16.80
2022-11-20T19:48:00.623Z,17.42
2022-11-20T19:50:20.606Z,17.33
2022-11-20T19:52:52.000Z,16.50
2022-11-20T19:55:23.511Z,17.02
2022-11-20T19:57:51.287Z,16.27
2022-11-20T20:00:25.653Z,16.38
2022-11-20T20:02:58.872Z,16.50
2022-11-20T20:05:26.664Z,16.65
2022-11-20T20:07:55.796Z,16.40
2022-11-20T20:10:23.557Z,16.63
2022-11-20T20:12:51.352Z,16.38
2022-11-20T20:15:19.135Z,15.50
2022-11-20T20:17:46.900Z,15.90
2022-11-20T20:20:15.101Z,17.27
2022-11-20T20:22:43.246Z,15.80
2022-11-20T20:25:12.561Z,15.75
2022-11-20T20:27:40.628Z,16.25
2022-11-20T20:30:11.848Z,16.08
2022-11-20T20:32:39.757Z,16.65
2022-11-20T20:35:08.101Z,17.13
2022-11-20T20:37:35.881Z,17.35
2022-11-20T20:40:03.664Z,16.80
2022-11-20T20:42:32.983Z,16.23
2022-11-20T20:45:11.090Z,17.10
2022-11-20T20:47:40.610Z,17.02
2022-11-20T20:50:11.153Z,15.88
2022-11-20T20:52:38.922Z,16.88
2022-11-20T20:55:07.508Z,16.30
2022-11-20T20:57:36.989Z,16.40
2022-11-20T21:00:06.084Z,16.83
2022-11-20T21:02:34.002Z,16.17
2022-11-20T21:05:01.686Z,19.08
2022-11-20T21:07:29.500Z,18.60
2022-11-20T21:09:57.363Z,18.35
2022-11-20T21:12:25.083Z,17.85
2022-11-20T21:14:58.828Z,18.20
2022-11-20T21:17:28.121Z,17.00
2022-11-20T21:19:55.856Z,18.50
2022-11-20T21:22:22.636Z,17.98
2022-11-20T21:24:50.457Z,17.85
2022-11-20T21:27:18.176Z,17.55
2022-11-20T21:29:45.964Z,18.83
2022-11-20T21:32:15.086Z,16.65
2022-11-20T21:34:42.869Z,16.88
2022-11-20T21:37:10.623Z,17.55
2022-11-20T21:39:50.563Z,16.88
2022-11-20T21:42:18.470Z,17.25
2022-11-20T21:44:47.365Z,17.00
2022-11-20T21:47:16.581Z,18.23
2022-11-20T21:49:44.306Z,16.33
2022-11-20T21:52:12.040Z,17.00
2022-11-20T21:54:39.759Z,16.90
2022-11-20T21:57:07.476Z,16.85
2022-11-20T21:59:35.207Z,17.15
2022-11-20T22:02:03.054Z,17.15
2022-11-20T22:04:32.226Z,17.35
2022-11-20T22:07:00.002Z,17.83
2022-11-20T22:09:27.744Z,18.48
2022-11-20T22:11:55.498Z,16.98
2022-11-20T22:14:22.729Z,16.70
2022-11-20T22:16:52.083Z,17.58
2022-11-20T22:19:21.460Z,17.88
2022-11-20T22:21:51.639Z,18.75
2022-11-20T22:24:21.350Z,18.00
2022-11-20T22:26:49.739Z,18.58
2022-11-20T22:29:19.249Z,17.98
2022-11-20T22:31:47.726Z,18.83
2022-11-20T22:34:15.850Z,17.98
2022-11-20T22:36:43.585Z,18.45
2022-11-20T22:39:12.703Z,18.25
2022-11-20T22:41:40.460Z,18.35
2022-11-20T22:44:09.032Z,19.02
2022-11-20T22:46:38.668Z,17.63
2022-11-20T22:49:08.410Z,18.45
2022-11-20T22:51:38.343Z,18.25
2022-11-20T22:54:06.532Z,18.20
2022-11-20T22:56:35.959Z,19.48
2022-11-20T22:59:04.976Z,19.08
2022-11-20T23:01:33.888Z,18.85
2022-11-20T23:04:03.284Z,19.25
2022-11-20T23:06:34.228Z,18.85
2022-11-20T23:09:02.763Z,19.42
2022-11-20T23:11:32.368Z,19.45
2022-11-20T23:14:03.269Z,19.02
2022-11-20T23:16:32.532Z,18.63
2022-11-20T23:19:02.916Z,20.30
2022-11-20T23:21:30.876Z,18.48
2022-11-20T23:23:59.727Z,17.67
2022-11-20T23:26:29.861Z,18.35
2022-11-20T23:28:59.024Z,18.23
2022-11-20T23:31:30.338Z,18.60
2022-11-20T23:33:58.455Z,18.92
2022-11-20T23:36:26.531Z,18.08
2022-11-20T23:38:54.295Z,18.17
2022-11-20T23:41:22.155Z,18.35
2022-11-20T23:43:49.938Z,18.77
2022-11-20T23:46:17.737Z,19.02
2022-11-20T23:48:46.976Z,17.55
2022-11-20T23:51:15.491Z,18.60
2022-11-20T23:53:43.793Z,17.33
2022-11-20T23:56:14.236Z,17.30
2022-11-20T23:58:42.669Z,18.52
